LEGE/GRO METAR and TAF weather

Enter ICAO airport designator
Station Type Date Time Source
LEGE METAR 2019/10/21 02:30 UTC NOAA

LEGE 210230Z VRB02KT 9999 FEW037 13/11 Q1014 R/SNOCLO


Station Type Date Time Source
LEGE Decoded METAR 2019/10/21 02:30 UTC NOAA

Gerona / Costa Brava, Spain (LEGE) 41-54N 002-46E 129M
Oct 20, 2019 - 10:30 PM EDT / 2019.10.21 0230 UTC
Wind: Variable at 2 MPH (2 KT):0
Visibility: greater than 7 mile(s):0
Sky conditions: mostly clear
Temperature: 55 F (13 C)
Dew Point: 51 F (11 C)
Relative Humidity: 87%
Pressure (altimeter): 29.94 in. Hg (1014 hPa)
ob: LEGE 210230Z VRB02KT 9999 FEW037 13/11 Q1014 R/SNOCLO
cycle: 2

Station Type Date Time Source
LEGE TAF 2019/10/20 18:27 UTC NOAA

TAF LEGE 201700Z 2018/2118 22010KT 9999 SCT040 TX19/2113Z TN12/2106Z PROB40
TEMPO 2018/2020 SHRA FEW035TCU
BECMG 2020/2022 35005KT PROB40 2109/2118 4000 RA BKN014

Example: see airport list